createdAt,value
2018-04-19T00:03:16.319Z,15.94
2018-04-19T00:08:17.294Z,15.89
2018-04-19T00:13:18.263Z,16.06
2018-04-19T00:18:19.233Z,15.72
2018-04-19T00:23:20.197Z,15.82
2018-04-19T00:28:21.176Z,15.92
2018-04-19T00:33:22.157Z,16.16
2018-04-19T00:38:23.124Z,15.90
2018-04-19T00:43:24.085Z,15.76
2018-04-19T00:48:25.036Z,15.69
2018-04-19T00:53:25.971Z,15.89
2018-04-19T00:58:26.931Z,15.55
2018-04-19T01:03:27.918Z,15.45
2018-04-19T01:08:28.878Z,15.74
2018-04-19T01:13:29.845Z,15.66
2018-04-19T01:18:30.837Z,15.60
2018-04-19T01:23:31.804Z,15.65
2018-04-19T01:28:32.780Z,15.59
2018-04-19T01:33:33.733Z,15.27
2018-04-19T01:38:34.695Z,15.59
2018-04-19T01:43:35.664Z,15.40
2018-04-19T01:48:36.616Z,15.42
2018-04-19T01:53:37.563Z,15.59
2018-04-19T01:58:38.504Z,15.11
2018-04-19T02:03:39.482Z,15.40
2018-04-19T02:08:40.419Z,15.26
2018-04-19T02:13:41.406Z,15.58
2018-04-19T02:18:42.360Z,15.30
2018-04-19T02:23:43.314Z,15.59
2018-04-19T02:28:44.308Z,15.57
2018-04-19T02:33:45.266Z,15.43
2018-04-19T02:38:46.215Z,15.32
2018-04-19T02:43:47.155Z,15.43
2018-04-19T02:48:48.100Z,15.11
2018-04-19T02:53:49.041Z,15.08
2018-04-19T02:58:49.982Z,15.26
2018-04-19T03:03:50.984Z,15.19
2018-04-19T03:08:51.977Z,14.97
2018-04-19T03:13:52.923Z,15.16
2018-04-19T03:18:53.884Z,14.88
2018-04-19T03:23:54.852Z,14.85
2018-04-19T03:28:55.860Z,15.10
2018-04-19T03:33:57.656Z,15.10
2018-04-19T03:38:58.620Z,14.89
2018-04-19T03:43:59.594Z,15.00
2018-04-19T03:49:00.556Z,14.78
2018-04-19T03:54:01.515Z,14.77
2018-04-19T03:59:02.497Z,14.72
2018-04-19T04:04:03.478Z,14.70
2018-04-19T04:09:04.444Z,14.67
2018-04-19T04:14:05.401Z,14.83
2018-04-19T04:24:45.311Z,14.78
2018-04-19T04:29:46.288Z,14.80
2018-04-19T04:34:47.223Z,14.94
2018-04-19T04:39:48.178Z,14.93
2018-04-19T04:44:49.152Z,14.83
2018-04-19T04:49:50.111Z,14.98
2018-04-19T04:54:51.096Z,14.92
2018-04-19T04:59:52.052Z,14.96
2018-04-19T05:04:53.045Z,15.11
2018-04-19T05:09:54.029Z,15.25
2018-04-19T05:14:54.983Z,15.27
2018-04-19T05:19:55.981Z,15.14
2018-04-19T05:24:56.940Z,15.49
2018-04-19T05:29:57.915Z,14.95
2018-04-19T05:34:58.867Z,15.57
2018-04-19T05:39:59.824Z,15.79
2018-04-19T05:45:00.764Z,15.96
2018-04-19T05:50:01.695Z,16.14
2018-04-19T05:55:02.697Z,16.25
2018-04-19T06:00:03.656Z,16.04
2018-04-19T06:05:04.634Z,16.05
2018-04-19T06:10:05.591Z,16.36
2018-04-19T06:15:06.548Z,16.26
2018-04-19T06:20:07.518Z,16.35
2018-04-19T06:25:08.497Z,16.75
2018-04-19T06:30:09.515Z,16.87
2018-04-19T06:35:10.482Z,16.92
2018-04-19T06:40:11.468Z,17.17
2018-04-19T06:45:12.464Z,17.12
2018-04-19T06:50:13.435Z,17.35
2018-04-19T06:55:14.421Z,17.48
2018-04-19T07:00:15.377Z,17.55
2018-04-19T07:05:16.405Z,17.81
2018-04-19T07:10:17.378Z,17.91
2018-04-19T07:15:18.351Z,17.93
2018-04-19T07:20:19.324Z,18.25
2018-04-19T07:25:20.299Z,18.28
2018-04-19T07:30:21.301Z,18.30
2018-04-19T07:35:22.281Z,18.45
2018-04-19T07:40:23.275Z,18.40
2018-04-19T07:45:24.273Z,18.63
2018-04-19T07:50:25.264Z,18.79
2018-04-19T07:55:26.241Z,18.97
2018-04-19T08:00:27.227Z,18.99
2018-04-19T08:05:28.271Z,19.06
2018-04-19T08:10:29.232Z,19.15
2018-04-19T08:15:30.236Z,19.30
2018-04-19T08:20:38.263Z,19.53
2018-04-19T08:25:39.329Z,19.65
2018-04-19T08:30:40.320Z,19.86
2018-04-19T08:35:41.282Z,19.70
2018-04-19T08:40:42.273Z,20.13
2018-04-19T08:45:43.240Z,20.19
2018-04-19T08:50:44.200Z,20.38
2018-04-19T08:55:45.173Z,20.44
2018-04-19T09:00:46.119Z,20.48
2018-04-19T09:05:47.132Z,20.66
2018-04-19T09:10:48.114Z,20.93
2018-04-19T09:15:49.092Z,20.89
2018-04-19T09:20:50.047Z,20.84
2018-04-19T09:25:51.013Z,21.02
2018-04-19T09:30:51.993Z,21.24
2018-04-19T09:35:52.951Z,21.38
2018-04-19T09:40:53.915Z,21.43
2018-04-19T09:45:54.855Z,21.67
2018-04-19T09:50:55.821Z,21.74
2018-04-19T09:55:56.774Z,21.95
2018-04-19T10:01:03.915Z,21.73
2018-04-19T10:06:07.804Z,21.84
2018-04-19T10:11:08.762Z,22.09
2018-04-19T10:16:09.752Z,22.24
2018-04-19T10:21:10.696Z,22.53
2018-04-19T10:26:11.661Z,22.42
2018-04-19T10:31:12.640Z,22.75
2018-04-19T10:36:13.587Z,22.55
2018-04-19T10:41:14.549Z,23.25
2018-04-19T10:46:15.520Z,23.30
2018-04-19T10:51:16.477Z,23.21
2018-04-19T10:56:17.437Z,23.43
2018-04-19T11:01:18.393Z,24.00
2018-04-19T11:06:19.406Z,23.97
2018-04-19T11:11:20.358Z,24.20
2018-04-19T11:16:21.309Z,24.55
2018-04-19T11:21:22.293Z,24.88
2018-04-19T11:26:23.255Z,24.46
2018-04-19T11:31:24.248Z,24.69
2018-04-19T11:36:25.213Z,24.42
2018-04-19T11:41:26.174Z,24.84
2018-04-19T11:46:27.119Z,25.62
2018-04-19T11:51:28.069Z,25.57
2018-04-19T11:56:29.034Z,25.56
2018-04-19T12:01:29.992Z,26.00
2018-04-19T12:06:30.992Z,26.30
2018-04-19T12:11:31.926Z,26.67
2018-04-19T12:16:32.862Z,26.30
2018-04-19T12:21:33.841Z,26.96
2018-04-19T12:26:34.832Z,27.18
2018-04-19T12:31:35.881Z,27.37
2018-04-19T12:36:36.879Z,27.23
2018-04-19T12:41:37.835Z,27.22
2018-04-19T12:46:38.800Z,28.05
2018-04-19T12:51:39.723Z,27.83
2018-04-19T12:56:40.679Z,28.30
2018-04-19T13:01:41.630Z,27.98
2018-04-19T13:06:42.646Z,27.92
2018-04-19T13:11:43.612Z,28.18
2018-04-19T13:16:44.584Z,28.58
2018-04-19T13:21:45.552Z,29.19
2018-04-19T13:26:46.493Z,28.61
2018-04-19T13:31:47.463Z,28.85
2018-04-19T13:36:48.413Z,28.11
2018-04-19T13:41:49.378Z,29.11
2018-04-19T13:46:50.363Z,29.05
2018-04-19T13:51:51.360Z,29.29
2018-04-19T13:56:53.225Z,28.91
2018-04-19T14:01:54.246Z,28.81
2018-04-19T14:06:55.245Z,29.43
2018-04-19T14:11:56.200Z,29.14
2018-04-19T14:16:57.171Z,28.29
2018-04-19T14:21:58.135Z,29.04
2018-04-19T14:26:59.110Z,30.00
2018-04-19T14:32:00.055Z,28.71
2018-04-19T14:37:01.005Z,30.31
2018-04-19T14:42:01.972Z,30.51
2018-04-19T14:47:02.966Z,30.41
2018-04-19T14:52:03.936Z,30.35
2018-04-19T14:57:04.926Z,28.51
2018-04-19T15:02:05.902Z,28.32
2018-04-19T15:07:06.904Z,29.77
2018-04-19T15:12:07.896Z,30.87
2018-04-19T15:17:08.889Z,29.36
2018-04-19T15:22:09.854Z,30.07
2018-04-19T15:27:10.851Z,30.06
2018-04-19T15:32:11.846Z,30.04
2018-04-19T15:37:12.836Z,30.78
2018-04-19T15:42:13.792Z,30.16
2018-04-19T15:47:14.777Z,30.55
2018-04-19T15:52:15.765Z,29.64
2018-04-19T15:57:16.763Z,29.43
2018-04-19T16:02:18.781Z,29.24
2018-04-19T16:07:19.886Z,28.56
2018-04-19T16:12:20.925Z,29.67
2018-04-19T16:17:21.924Z,29.74
2018-04-19T16:22:22.882Z,29.04
2018-04-19T16:27:23.898Z,29.29
2018-04-19T16:32:24.935Z,28.28
2018-04-19T16:37:25.928Z,28.48
2018-04-19T16:42:26.980Z,28.20
2018-04-19T16:47:28.047Z,28.04
2018-04-19T16:52:29.003Z,27.92
2018-04-19T16:57:29.997Z,27.25
2018-04-19T17:02:30.993Z,27.08
2018-04-19T17:07:32.009Z,26.23
2018-04-19T17:12:33.000Z,25.92
2018-04-19T17:17:33.996Z,26.30
2018-04-19T17:22:35.382Z,25.89
2018-04-19T17:27:36.372Z,26.00
2018-04-19T17:32:37.386Z,25.31
2018-04-19T17:37:38.389Z,25.30
2018-04-19T17:42:39.407Z,25.09
2018-04-19T17:47:40.396Z,24.51
2018-04-19T17:52:41.398Z,24.57
2018-04-19T17:57:42.387Z,24.09
2018-04-19T18:02:43.339Z,24.00
2018-04-19T18:07:44.377Z,23.99
2018-04-19T18:12:45.852Z,23.94
2018-04-19T18:17:46.866Z,23.69
2018-04-19T18:22:47.860Z,23.68
2018-04-19T18:27:48.884Z,23.26
2018-04-19T18:32:49.859Z,22.93
2018-04-19T18:37:50.847Z,22.99
2018-04-19T18:42:51.896Z,23.00
2018-04-19T18:47:52.939Z,22.54
2018-04-19T18:52:53.930Z,22.48
2018-04-19T18:57:54.969Z,22.42
2018-04-19T19:02:55.956Z,22.09
2018-04-19T19:07:56.993Z,22.08
2018-04-19T19:12:57.981Z,21.73
2018-04-19T19:23:36.122Z,20.97
2018-04-19T19:28:37.160Z,21.06
2018-04-19T19:33:38.131Z,21.05
2018-04-19T19:38:39.144Z,21.22
2018-04-19T19:43:40.157Z,20.96
2018-04-19T19:48:41.153Z,20.96
2018-04-19T19:53:42.172Z,20.65
2018-04-19T19:58:43.164Z,20.69
2018-04-19T20:03:44.183Z,20.58
2018-04-19T20:08:45.228Z,20.46
2018-04-19T20:13:46.260Z,20.06
2018-04-19T20:18:47.285Z,20.23
2018-04-19T20:23:48.291Z,19.83
2018-04-19T20:28:49.323Z,19.71
2018-04-19T20:33:50.700Z,19.87
2018-04-19T20:38:51.739Z,19.43
2018-04-19T20:43:52.715Z,19.59
2018-04-19T20:48:53.667Z,19.34
2018-04-19T20:53:54.628Z,19.31
2018-04-19T20:58:55.587Z,19.49
2018-04-19T21:03:56.584Z,19.56
2018-04-19T21:08:57.627Z,19.44
2018-04-19T21:13:58.627Z,19.23
2018-04-19T21:18:59.631Z,19.18
2018-04-19T21:24:00.639Z,19.03
2018-04-19T21:29:01.611Z,18.66
2018-04-19T21:34:03.238Z,18.94
2018-04-19T21:39:04.242Z,18.90
2018-04-19T21:44:05.250Z,18.95
2018-04-19T21:49:06.199Z,18.85
2018-04-19T21:54:07.151Z,18.82
2018-04-19T21:59:08.112Z,18.79
2018-04-19T22:04:09.109Z,19.00
2018-04-19T22:09:10.124Z,18.59
2018-04-19T22:14:11.088Z,18.23
2018-04-19T22:19:12.090Z,18.39
2018-04-19T22:24:13.097Z,18.67
2018-04-19T22:29:14.068Z,18.29
2018-04-19T22:34:15.076Z,18.19
2018-04-19T22:39:16.037Z,18.27
2018-04-19T22:44:16.984Z,18.13
2018-04-19T22:49:17.963Z,17.75
2018-04-19T22:54:18.941Z,17.74
2018-04-19T22:59:19.935Z,17.79
2018-04-19T23:04:20.914Z,17.69
2018-04-19T23:09:21.930Z,17.75
2018-04-19T23:14:22.878Z,17.63
2018-04-19T23:19:23.846Z,17.59
2018-04-19T23:24:24.819Z,17.57
2018-04-19T23:29:25.800Z,17.65
2018-04-19T23:34:26.845Z,17.65
2018-04-19T23:39:27.763Z,17.55
2018-04-19T23:44:28.714Z,17.50
2018-04-19T23:49:29.687Z,17.83
2018-04-19T23:54:30.643Z,17.67
2018-04-19T23:59:31.620Z,17.88
